Time;durP1;ratioP1;P1;durP2;ratioP2;P2;SDS_P1;SDS_P2;PMS_P1;PMS_P2;Temp;Humidity;BMP_temperature;BMP_pressure;BME280_temperature;BME280_humidity;BME280_pressure;Samples;Min_cycle;Max_cycle;Signal;HPM_P1;HPM_P2
2022/11/07 00:00:10;;;;;;;34.47;21.63;;;6.60;76.90;;;;;;5075816;28;20032;-17
2022/11/07 00:02:37;;;;;;;37.65;23.38;;;6.70;76.30;;;;;;5075448;28;20016;-17
2022/11/07 00:05:04;;;;;;;39.13;22.90;;;6.70;76.60;;;;;;5075211;28;20059;-17
2022/11/07 00:07:30;;;;;;;31.60;21.83;;;6.70;76.70;;;;;;5074671;28;20024;-15
2022/11/07 00:09:56;;;;;;;26.58;17.77;;;6.70;76.60;;;;;;5075674;28;20025;-17
2022/11/07 00:12:22;;;;;;;23.65;16.38;;;6.70;78.00;;;;;;5075350;28;20103;-17
2022/11/07 00:14:48;;;;;;;26.45;17.45;;;6.80;77.60;;;;;;5074964;28;20028;-18
2022/11/07 00:17:14;;;;;;;32.40;19.92;;;6.80;77.10;;;;;;5075898;28;20024;-16
2022/11/07 00:19:40;;;;;;;30.98;19.30;;;6.80;77.40;;;;;;5075276;28;20035;-18
2022/11/07 00:22:06;;;;;;;23.20;15.30;;;6.80;77.10;;;;;;5075413;28;20081;-18
2022/11/07 00:24:32;;;;;;;37.00;21.38;;;6.80;77.40;;;;;;5075207;28;20484;-17
2022/11/07 00:26:58;;;;;;;33.22;20.00;;;6.80;76.90;;;;;;5074656;28;20492;-15
2022/11/07 00:29:24;;;;;;;35.55;21.25;;;6.90;76.90;;;;;;5075191;28;20040;-16
2022/11/07 00:31:49;;;;;;;31.33;18.90;;;6.90;76.90;;;;;;5075330;28;20029;-15
2022/11/07 00:34:16;;;;;;;26.98;18.00;;;6.90;77.30;;;;;;5075193;28;20111;-16
2022/11/07 00:36:42;;;;;;;23.63;15.40;;;6.90;77.00;;;;;;5074786;28;20056;-16
2022/11/07 00:39:09;;;;;;;23.77;15.18;;;6.90;77.30;;;;;;5074875;28;20056;-16
2022/11/07 00:41:35;;;;;;;27.42;15.82;;;6.90;77.30;;;;;;5074689;28;20035;-17
2022/11/07 00:44:01;;;;;;;24.17;15.90;;;6.90;77.10;;;;;;5074558;28;20024;-18
2022/11/07 00:46:27;;;;;;;30.95;19.35;;;7.00;77.20;;;;;;5074613;28;20082;-15
2022/11/07 00:48:53;;;;;;;36.40;21.55;;;6.90;77.40;;;;;;5074247;28;20024;-18
2022/11/07 00:51:24;;;;;;;27.58;18.17;;;6.90;77.40;;;;;;5075091;28;20021;-17
2022/11/07 00:53:51;;;;;;;31.15;19.45;;;6.90;77.50;;;;;;5074379;28;20133;-16
2022/11/07 00:56:20;;;;;;;33.60;20.55;;;6.90;77.80;;;;;;5074321;28;20036;-15
2022/11/07 00:58:46;;;;;;;31.63;20.10;;;6.90;77.50;;;;;;5074201;28;20104;-16
2022/11/07 01:01:21;;;;;;;25.45;17.33;;;6.90;77.40;;;;;;5074270;28;20111;-14
2022/11/07 01:06:35;;;;;;;30.77;19.88;;;6.90;77.30;;;;;;5074508;28;20059;-18
2022/11/07 01:09:01;;;;;;;25.83;16.92;;;6.90;77.50;;;;;;5073926;28;20029;-16
2022/11/07 01:11:29;;;;;;;25.85;17.50;;;6.90;77.60;;;;;;5074095;28;20043;-16
2022/11/07 01:14:02;;;;;;;30.50;19.77;;;6.90;77.60;;;;;;5074219;28;20400;-16
2022/11/07 01:16:29;;;;;;;31.90;20.70;;;6.90;77.70;;;;;;5074308;28;20452;-18
2022/11/07 01:18:55;;;;;;;28.88;17.20;;;6.90;78.10;;;;;;5073249;28;20025;-15
2022/11/07 01:21:22;;;;;;;27.30;17.27;;;7.00;77.90;;;;;;5073805;28;20039;-16
2022/11/07 01:23:48;;;;;;;34.05;22.65;;;6.90;77.80;;;;;;5074040;28;20043;-16
2022/11/07 01:26:16;;;;;;;29.60;19.30;;;6.90;77.80;;;;;;5074436;28;20021;-18
2022/11/07 01:28:42;;;;;;;27.30;17.92;;;6.90;77.80;;;;;;5074055;28;20028;-16
2022/11/07 01:31:11;;;;;;;25.90;17.15;;;6.90;77.70;;;;;;5073521;28;20025;-16
2022/11/07 01:33:38;;;;;;;28.20;16.35;;;6.90;77.80;;;;;;5073874;28;20119;-16
2022/11/07 01:36:08;;;;;;;35.58;22.58;;;6.90;77.80;;;;;;5074146;28;20044;-18
2022/11/07 01:38:38;;;;;;;35.28;21.42;;;6.90;78.10;;;;;;5073664;28;20544;-18
2022/11/07 01:41:21;;;;;;;40.00;21.70;;;6.90;78.10;;;;;;5073447;28;20021;-15
2022/11/07 01:43:52;;;;;;;29.98;19.38;;;6.90;78.20;;;;;;5073624;28;20025;-18
2022/11/07 01:46:20;;;;;;;29.20;17.65;;;6.90;78.10;;;;;;5073805;28;20071;-18
2022/11/07 01:48:53;;;;;;;34.90;21.85;;;6.80;78.20;;;;;;5073384;28;20032;-17
2022/11/07 01:51:21;;;;;;;30.77;18.05;;;6.80;78.20;;;;;;5073444;28;20028;-18
2022/11/07 01:53:49;;;;;;;24.58;17.35;;;6.80;78.20;;;;;;5073307;28;20032;-16
2022/11/07 01:56:21;;;;;;;28.50;18.38;;;6.70;78.60;;;;;;5073393;28;20020;-17
2022/11/07 01:58:47;;;;;;;27.60;17.33;;;6.70;78.30;;;;;;5073149;28;20027;-18
2022/11/07 02:01:15;;;;;;;27.13;19.42;;;6.60;78.50;;;;;;5073301;28;20029;-19
2022/11/07 02:03:42;;;;;;;22.23;14.93;;;6.60;78.60;;;;;;5073251;28;20500;-18
2022/11/07 02:06:14;;;;;;;23.13;15.45;;;6.50;78.60;;;;;;5073250;28;20036;-16
2022/11/07 02:08:42;;;;;;;28.83;16.45;;;6.50;78.60;;;;;;5073532;28;20027;-17
2022/11/07 02:11:11;;;;;;;22.23;13.50;;;6.40;78.60;;;;;;5073078;28;20098;-18
2022/11/07 02:13:37;;;;;;;23.40;14.98;;;6.40;78.40;;;;;;5073332;28;20520;-17
2022/11/07 02:16:03;;;;;;;21.92;14.23;;;6.40;78.20;;;;;;5073123;28;20098;-18
2022/11/07 02:18:33;;;;;;;28.90;18.55;;;6.40;78.30;;;;;;5073487;28;20040;-16
2022/11/07 02:21:10;;;;;;;30.33;18.30;;;6.30;78.60;;;;;;5071524;28;20511;-17
2022/11/07 02:23:58;;;;;;;24.05;15.32;;;6.30;78.50;;;;;;5073027;28;20033;-18
2022/11/07 02:26:25;;;;;;;19.70;13.32;;;6.30;78.50;;;;;;5073616;28;20020;-18
2022/11/07 02:28:54;;;;;;;25.02;15.98;;;6.20;78.30;;;;;;5073386;28;20051;-18
2022/11/07 02:31:20;;;;;;;32.75;18.95;;;6.20;78.50;;;;;;5076645;28;20021;-17
2022/11/07 02:33:46;;;;;;;31.67;20.45;;;6.20;78.80;;;;;;5076919;28;20068;-18
2022/11/07 02:36:16;;;;;;;34.58;21.13;;;6.10;78.80;;;;;;5077107;28;20064;-19
2022/11/07 02:38:45;;;;;;;29.65;18.52;;;6.10;78.90;;;;;;5077324;28;20111;-17
2022/11/07 02:41:23;;;;;;;25.05;16.05;;;6.10;79.10;;;;;;5076874;28;20115;-17
2022/11/07 02:43:53;;;;;;;24.13;16.23;;;6.00;79.00;;;;;;5077371;28;20040;-18
2022/11/07 02:46:22;;;;;;;31.92;19.67;;;6.00;79.20;;;;;;5077231;28;20025;-18
2022/11/07 02:48:50;;;;;;;22.17;14.20;;;6.00;79.30;;;;;;5076615;28;20115;-17
2022/11/07 02:51:16;;;;;;;21.23;13.07;;;5.90;79.30;;;;;;5076772;28;20068;-17
2022/11/07 02:53:42;;;;;;;21.85;12.80;;;5.90;79.00;;;;;;5058805;28;20025;-18
2022/11/07 02:56:09;;;;;;;22.13;15.52;;;5.90;79.00;;;;;;5076961;28;20380;-18
2022/11/07 02:58:35;;;;;;;21.48;15.00;;;5.90;79.20;;;;;;5076674;28;20086;-17
2022/11/07 03:01:05;;;;;;;22.63;14.32;;;5.90;79.20;;;;;;5076364;28;20111;-18
2022/11/07 03:03:40;;;;;;;28.10;17.08;;;5.80;79.20;;;;;;5076577;28;20028;-17
2022/11/07 03:06:08;;;;;;;29.15;17.73;;;5.70;79.20;;;;;;5076720;28;20024;-19
2022/11/07 03:08:34;;;;;;;29.33;18.42;;;5.70;79.30;;;;;;5076794;28;20074;-18
2022/11/07 03:11:01;;;;;;;26.27;15.15;;;5.70;79.30;;;;;;5076306;28;20421;-17
2022/11/07 03:13:27;;;;;;;22.30;15.20;;;5.60;79.30;;;;;;5076337;28;20032;-18
2022/11/07 03:15:54;;;;;;;30.67;18.88;;;5.60;79.20;;;;;;5076297;28;20090;-18
2022/11/07 03:18:21;;;;;;;21.45;13.68;;;5.60;79.30;;;;;;5076571;28;20093;-18
2022/11/07 03:20:47;;;;;;;29.48;18.13;;;5.60;79.80;;;;;;5075908;28;20024;-17
2022/11/07 03:23:13;;;;;;;22.13;14.75;;;5.60;79.50;;;;;;5077033;28;20016;-17
2022/11/07 03:25:41;;;;;;;25.27;16.17;;;5.60;79.50;;;;;;5074909;28;20024;-18
2022/11/07 03:28:07;;;;;;;20.77;14.00;;;5.60;79.50;;;;;;5076078;28;20028;-17
2022/11/07 03:30:33;;;;;;;21.60;14.05;;;5.60;79.60;;;;;;5076004;28;20062;-18
2022/11/07 03:32:59;;;;;;;26.10;15.65;;;5.60;79.40;;;;;;5075568;28;20404;-18
2022/11/07 03:35:26;;;;;;;28.95;18.08;;;5.60;79.40;;;;;;5075874;28;20518;-17
2022/11/07 03:37:54;;;;;;;29.13;18.08;;;5.60;79.60;;;;;;5075895;28;20044;-17
2022/11/07 03:40:20;;;;;;;27.45;17.08;;;5.50;79.60;;;;;;5075941;28;20107;-16
2022/11/07 03:42:46;;;;;;;23.90;14.68;;;5.50;79.80;;;;;;5074588;28;20500;-24
2022/11/07 03:45:14;;;;;;;25.60;15.80;;;5.40;79.70;;;;;;5076126;28;20024;-18
2022/11/07 03:47:42;;;;;;;26.13;15.93;;;5.40;79.80;;;;;;5075781;28;20499;-18
2022/11/07 03:50:11;;;;;;;22.65;14.43;;;5.30;79.80;;;;;;5075950;28;20033;-18
2022/11/07 03:52:37;;;;;;;27.33;16.73;;;5.30;80.00;;;;;;5075641;28;20052;-19
2022/11/07 03:55:04;;;;;;;28.70;17.98;;;5.30;80.10;;;;;;5075653;28;20067;-17
2022/11/07 03:57:30;;;;;;;25.42;15.52;;;5.20;80.10;;;;;;5075471;28;20029;-16
2022/11/07 03:59:56;;;;;;;23.98;16.33;;;5.10;80.10;;;;;;5075873;28;20069;-17
2022/11/07 04:02:22;;;;;;;28.58;16.58;;;5.10;80.30;;;;;;5075433;28;20033;-18
2022/11/07 04:04:48;;;;;;;28.02;16.83;;;5.10;80.50;;;;;;5075137;28;20024;-16
2022/11/07 04:07:15;;;;;;;25.33;16.40;;;5.00;80.50;;;;;;5075418;28;20040;-17
2022/11/07 04:09:40;;;;;;;24.75;16.17;;;5.00;80.90;;;;;;5075330;28;20082;-18
2022/11/07 04:17:38;;;;;;;19.65;13.73;;;4.90;80.60;;;;;;5075569;28;20039;-18
2022/11/07 04:20:05;;;;;;;17.45;11.52;;;4.90;80.80;;;;;;5075073;28;20025;-18
2022/11/07 04:22:31;;;;;;;23.17;14.43;;;4.90;80.90;;;;;;5075127;28;20085;-18
2022/11/07 04:24:57;;;;;;;18.30;12.02;;;4.80;80.70;;;;;;5075191;28;20102;-18
2022/11/07 04:27:41;;;;;;;26.73;15.77;;;4.80;80.50;;;;;;5075533;28;20492;-16
2022/11/07 04:30:18;;;;;;;;;;;4.80;80.40;;;;;;5076061;28;20070;-16
2022/11/07 04:32:45;;;;;;;19.27;12.18;;;4.80;81.10;;;;;;5074967;28;19955;-17
2022/11/07 04:35:11;;;;;;;16.52;11.05;;;4.80;80.80;;;;;;5074655;28;20503;-18
2022/11/07 04:37:37;;;;;;;25.05;14.85;;;4.80;80.70;;;;;;5075250;28;20024;-18
2022/11/07 04:40:03;;;;;;;16.77;11.02;;;4.80;80.70;;;;;;5074750;28;20024;-17
2022/11/07 04:42:29;;;;;;;19.80;13.02;;;4.80;80.60;;;;;;5074908;28;20490;-17
2022/11/07 04:44:55;;;;;;;25.52;13.80;;;4.80;80.80;;;;;;5074758;28;20499;-17
2022/11/07 04:47:21;;;;;;;20.02;13.07;;;4.70;80.70;;;;;;5074625;28;20392;-17
2022/11/07 04:49:47;;;;;;;24.02;14.05;;;4.70;80.60;;;;;;5074857;28;20106;-17
2022/11/07 04:52:13;;;;;;;22.15;12.68;;;4.60;80.40;;;;;;5074763;28;20105;-17
2022/11/07 04:54:39;;;;;;;25.20;16.05;;;4.60;80.40;;;;;;5072977;28;20078;-16
2022/11/07 04:57:04;;;;;;;28.42;16.08;;;4.60;80.50;;;;;;5074223;28;20029;-18
2022/11/07 04:59:30;;;;;;;27.85;16.92;;;4.60;80.50;;;;;;5074283;28;20035;-17
2022/11/07 05:01:56;;;;;;;22.98;14.35;;;4.60;81.00;;;;;;5074584;28;20027;-17
2022/11/07 05:04:22;;;;;;;25.17;15.50;;;4.60;81.00;;;;;;5073656;28;20036;-16
2022/11/07 05:06:48;;;;;;;23.67;13.68;;;4.60;80.80;;;;;;5074018;28;20039;-18
2022/11/07 05:09:17;;;;;;;23.23;14.60;;;4.60;80.50;;;;;;5074212;28;20090;-17
2022/11/07 05:11:47;;;;;;;19.13;12.43;;;4.60;80.60;;;;;;5074147;28;20027;-14
2022/11/07 05:14:13;;;;;;;18.73;11.95;;;4.60;80.90;;;;;;5072774;28;20028;-16
2022/11/07 05:16:42;;;;;;;22.17;13.60;;;4.60;80.90;;;;;;5074479;28;20029;-15
2022/11/07 05:19:16;;;;;;;24.13;14.90;;;4.60;80.80;;;;;;5073691;28;20480;-16
2022/11/07 05:21:43;;;;;;;25.98;15.20;;;4.60;80.90;;;;;;5074295;28;20036;-16
2022/11/07 05:24:09;;;;;;;26.70;14.85;;;4.60;81.40;;;;;;5073993;28;20017;-13
2022/11/07 05:26:35;;;;;;;21.85;14.70;;;4.60;81.10;;;;;;5074210;28;20039;-14
2022/11/07 05:29:01;;;;;;;23.48;13.43;;;4.60;81.00;;;;;;5072410;28;20389;-15
2022/11/07 05:31:27;;;;;;;22.05;14.38;;;4.60;81.30;;;;;;5073843;28;20029;-15
2022/11/07 05:33:53;;;;;;;19.05;11.43;;;4.60;81.30;;;;;;5073500;28;20109;-16
2022/11/07 05:36:21;;;;;;;22.92;13.50;;;4.50;81.10;;;;;;5073549;28;20102;-17
2022/11/07 05:38:50;;;;;;;15.18;9.85;;;4.50;81.10;;;;;;5073488;28;20025;-16
2022/11/07 05:41:18;;;;;;;15.13;10.25;;;4.50;80.80;;;;;;5073591;28;20079;-16
2022/11/07 05:43:44;;;;;;;13.52;8.73;;;4.50;80.70;;;;;;5074137;28;20021;-14
2022/11/07 05:46:11;;;;;;;15.25;9.52;;;4.50;80.60;;;;;;5073515;28;20384;-14
2022/11/07 05:48:37;;;;;;;14.05;9.68;;;4.40;80.50;;;;;;5073453;28;20074;-15
2022/11/07 05:51:05;;;;;;;14.68;9.60;;;4.40;80.50;;;;;;5073216;28;20104;-15
2022/11/07 05:53:31;;;;;;;20.30;12.75;;;4.30;80.70;;;;;;5073344;28;20078;-14
2022/11/07 05:55:57;;;;;;;15.57;10.43;;;4.30;80.70;;;;;;5073802;28;20029;-18
2022/11/07 05:58:23;;;;;;;16.80;11.15;;;4.30;80.90;;;;;;5073329;28;20123;-17
2022/11/07 06:00:49;;;;;;;15.73;9.43;;;4.20;80.80;;;;;;5073447;28;20085;-18
2022/11/07 06:03:16;;;;;;;16.98;10.68;;;4.20;80.80;;;;;;5073510;28;20435;-18
2022/11/07 06:05:43;;;;;;;44.67;21.80;;;4.20;80.60;;;;;;5072579;28;20107;-18
2022/11/07 06:08:11;;;;;;;28.50;14.38;;;4.20;80.80;;;;;;5073536;28;20032;-17
2022/11/07 06:10:39;;;;;;;25.83;14.32;;;4.20;80.60;;;;;;5072101;28;20020;-16
2022/11/07 06:13:07;;;;;;;33.42;16.35;;;4.10;80.60;;;;;;5072860;28;20497;-17
2022/11/07 06:15:35;;;;;;;23.90;14.82;;;4.20;81.00;;;;;;5073092;28;20017;-19
2022/11/07 06:18:04;;;;;;;23.33;13.52;;;4.10;81.00;;;;;;5073738;28;20024;-18
2022/11/07 06:20:30;;;;;;;17.63;10.85;;;4.10;81.20;;;;;;5073023;28;20425;-17
2022/11/07 06:23:00;;;;;;;18.33;11.45;;;4.10;81.20;;;;;;5072864;28;20040;-18
2022/11/07 06:25:28;;;;;;;20.77;13.45;;;4.10;81.10;;;;;;5073361;28;20033;-18
2022/11/07 06:27:59;;;;;;;20.33;12.43;;;4.10;81.10;;;;;;5073287;28;20043;-18
2022/11/07 06:30:26;;;;;;;22.55;12.23;;;4.20;80.90;;;;;;5073035;28;20499;-17
2022/11/07 06:32:52;;;;;;;19.85;10.93;;;4.30;81.00;;;;;;5072842;28;20056;-18
2022/11/07 06:35:18;;;;;;;17.65;9.48;;;4.40;81.40;;;;;;5072768;28;20036;-16
2022/11/07 06:37:44;;;;;;;17.58;9.95;;;4.60;81.70;;;;;;5072886;28;20020;-18
2022/11/07 06:40:10;;;;;;;21.30;12.65;;;4.70;82.00;;;;;;5073126;28;20082;-17
2022/11/07 06:42:37;;;;;;;17.88;11.90;;;4.80;82.10;;;;;;5072882;28;20100;-18
2022/11/07 06:45:03;;;;;;;17.60;11.52;;;5.00;82.10;;;;;;5072625;28;20016;-18
2022/11/07 06:47:29;;;;;;;16.50;10.32;;;5.20;82.10;;;;;;5072787;28;20067;-18
2022/11/07 06:49:55;;;;;;;21.88;13.15;;;5.40;82.30;;;;;;5072510;28;20060;-16
2022/11/07 06:52:21;;;;;;;19.98;12.23;;;5.60;82.10;;;;;;5073073;28;20068;-18
2022/11/07 06:54:46;;;;;;;24.73;11.95;;;5.80;81.90;;;;;;5072612;28;20024;-16
2022/11/07 06:57:12;;;;;;;17.30;11.43;;;6.00;82.40;;;;;;5071440;28;20020;-18
2022/11/07 06:59:38;;;;;;;23.02;11.52;;;6.30;81.80;;;;;;5072957;28;20438;-16
2022/11/07 07:02:04;;;;;;;12.88;8.43;;;6.60;81.50;;;;;;5073589;28;20399;-18
2022/11/07 07:04:30;;;;;;;14.32;8.35;;;6.90;81.20;;;;;;5072908;28;20052;-19
2022/11/07 07:06:56;;;;;;;12.93;8.05;;;7.20;80.70;;;;;;5072690;28;20063;-17
2022/11/07 07:09:21;;;;;;;13.90;8.57;;;7.50;80.20;;;;;;5072918;28;20056;-17
2022/11/07 07:11:47;;;;;;;13.55;8.82;;;7.90;79.60;;;;;;5072906;28;20477;-17
2022/11/07 07:14:13;;;;;;;13.70;8.45;;;8.10;79.30;;;;;;5073137;28;20081;-18
2022/11/07 07:16:39;;;;;;;15.50;10.80;;;8.30;79.00;;;;;;5074232;28;20027;-19
2022/11/07 07:19:05;;;;;;;11.32;7.20;;;8.40;78.90;;;;;;5074905;28;20107;-19
2022/11/07 07:21:33;;;;;;;13.38;7.80;;;8.60;78.70;;;;;;5074952;28;20425;-16
2022/11/07 07:23:59;;;;;;;11.95;7.97;;;8.70;77.90;;;;;;5076191;28;20048;-13
2022/11/07 07:26:25;;;;;;;11.98;7.75;;;8.80;77.70;;;;;;5076286;28;20067;-15
2022/11/07 07:28:51;;;;;;;12.32;7.55;;;8.90;77.50;;;;;;5076173;28;20027;-12
2022/11/07 07:31:17;;;;;;;11.00;7.25;;;9.00;76.70;;;;;;5076382;28;20043;-14
2022/11/07 07:33:44;;;;;;;13.77;8.52;;;9.10;76.60;;;;;;5074648;28;20127;-14
2022/11/07 07:36:11;;;;;;;15.25;9.15;;;9.20;76.50;;;;;;5075885;28;20029;-16
2022/11/07 07:38:38;;;;;;;20.98;13.90;;;9.20;76.10;;;;;;5076186;28;20039;-18
2022/11/07 07:41:05;;;;;;;11.18;7.75;;;9.10;75.90;;;;;;5075795;28;20060;-16
2022/11/07 07:43:32;;;;;;;13.57;7.97;;;9.10;75.80;;;;;;5076095;28;20021;-16
2022/11/07 07:46:03;;;;;;;11.88;8.15;;;9.10;75.90;;;;;;5075962;28;20507;-16
2022/11/07 07:48:30;;;;;;;13.57;7.97;;;9.00;75.80;;;;;;5075771;28;20025;-15
2022/11/07 07:50:56;;;;;;;12.40;7.57;;;9.10;76.10;;;;;;5075691;28;20043;-18
2022/11/07 07:53:23;;;;;;;12.93;7.65;;;9.10;76.40;;;;;;5076141;28;20071;-16
2022/11/07 07:55:49;;;;;;;14.73;9.20;;;9.10;76.20;;;;;;5075799;28;20069;-15
2022/11/07 07:58:15;;;;;;;15.43;8.10;;;9.20;76.00;;;;;;5075756;28;20111;-17
2022/11/07 08:00:41;;;;;;;10.00;7.13;;;9.20;75.80;;;;;;5074313;28;20024;-16
2022/11/07 08:03:10;;;;;;;11.48;6.57;;;9.30;76.00;;;;;;5074105;28;20017;-16
2022/11/07 08:05:37;;;;;;;10.68;6.45;;;9.40;76.00;;;;;;5075778;28;20427;-15
2022/11/07 08:08:05;;;;;;;11.13;6.90;;;9.40;75.30;;;;;;5075477;28;20048;-16
2022/11/07 08:10:32;;;;;;;13.23;7.32;;;9.50;75.60;;;;;;5075684;28;20056;-14
2022/11/07 08:12:58;;;;;;;14.02;7.85;;;9.60;76.80;;;;;;5075188;28;20073;-15
2022/11/07 08:15:25;;;;;;;11.23;7.57;;;9.70;78.00;;;;;;5075780;28;20036;-14
2022/11/07 08:17:51;;;;;;;14.10;8.50;;;9.80;77.70;;;;;;5074058;28;20060;-17
2022/11/07 08:20:19;;;;;;;15.35;8.60;;;9.90;78.20;;;;;;5075142;28;20377;-16
2022/11/07 08:22:45;;;;;;;11.88;7.72;;;10.00;77.90;;;;;;5075096;28;20431;-14
2022/11/07 08:25:11;;;;;;;11.20;6.70;;;10.10;77.50;;;;;;5075753;28;20012;-16
2022/11/07 08:27:38;;;;;;;12.73;7.40;;;10.20;77.20;;;;;;5074723;28;20136;-14
2022/11/07 08:30:06;;;;;;;14.50;7.75;;;10.40;76.50;;;;;;5075615;28;20500;-16
2022/11/07 08:32:32;;;;;;;13.05;7.32;;;10.70;76.30;;;;;;5074875;28;20403;-16
2022/11/07 08:34:58;;;;;;;12.57;6.60;;;10.90;75.80;;;;;;5075214;28;20074;-16
2022/11/07 08:37:24;;;;;;;12.43;7.25;;;11.10;75.40;;;;;;5075264;28;20036;-18
2022/11/07 08:39:50;;;;;;;12.60;7.00;;;11.40;74.10;;;;;;5075439;28;20028;-18
2022/11/07 08:42:16;;;;;;;9.80;6.57;;;11.70;72.80;;;;;;5074926;28;20032;-18
2022/11/07 08:44:42;;;;;;;11.15;6.13;;;11.90;73.60;;;;;;5074668;28;20032;-17
2022/11/07 08:47:08;;;;;;;8.52;5.18;;;12.20;72.70;;;;;;5074436;28;20021;-16
2022/11/07 08:49:34;;;;;;;9.52;5.78;;;12.50;71.70;;;;;;5074673;28;20419;-16
2022/11/07 08:52:00;;;;;;;8.60;5.20;;;12.80;71.60;;;;;;5074519;28;20425;-16
2022/11/07 08:54:27;;;;;;;8.98;5.93;;;13.10;71.70;;;;;;5073548;28;20024;-17
2022/11/07 08:56:54;;;;;;;10.80;5.53;;;13.40;70.70;;;;;;5074345;28;20032;-15
2022/11/07 08:59:21;;;;;;;8.52;4.70;;;13.70;69.20;;;;;;5074382;28;20041;-18
2022/11/07 09:01:48;;;;;;;9.65;5.45;;;13.90;69.60;;;;;;5074353;28;20075;-18
2022/11/07 09:04:14;;;;;;;8.52;4.43;;;14.30;69.60;;;;;;5074271;28;20499;-17
2022/11/07 09:06:41;;;;;;;6.70;4.20;;;14.60;66.90;;;;;;5072929;28;20028;-15
2022/11/07 09:09:08;;;;;;;6.25;4.53;;;14.90;65.10;;;;;;5074083;28;20028;-15
2022/11/07 09:11:34;;;;;;;6.22;4.22;;;15.10;64.80;;;;;;5074583;28;20500;-15
2022/11/07 09:14:00;;;;;;;6.78;4.10;;;15.40;66.00;;;;;;5074026;28;20033;-16
2022/11/07 09:16:26;;;;;;;6.60;4.00;;;15.70;65.40;;;;;;5074336;28;20024;-14
2022/11/07 09:18:52;;;;;;;9.13;4.55;;;15.90;63.00;;;;;;5072590;28;20444;-17
2022/11/07 09:21:18;;;;;;;9.25;4.95;;;16.00;62.40;;;;;;5073312;28;20028;-15
2022/11/07 09:23:44;;;;;;;7.10;4.22;;;16.20;61.40;;;;;;5074126;28;20095;-16
2022/11/07 09:26:10;;;;;;;6.30;3.92;;;16.40;58.10;;;;;;5074062;28;20543;-17
2022/11/07 09:28:36;;;;;;;5.95;3.85;;;16.60;60.70;;;;;;5073769;28;20124;-16
2022/11/07 09:31:03;;;;;;;8.32;4.55;;;16.90;59.70;;;;;;5073682;28;20139;-15
2022/11/07 09:33:30;;;;;;;7.07;3.97;;;17.10;58.90;;;;;;5073501;28;20132;-15
2022/11/07 09:36:04;;;;;;;6.32;4.35;;;17.40;60.20;;;;;;5073834;28;20025;-15
2022/11/07 09:38:31;;;;;;;6.47;3.67;;;17.60;56.90;;;;;;5073606;28;20028;-15
2022/11/07 09:41:09;;;;;;;7.40;3.97;;;17.80;58.90;;;;;;5072583;28;20046;-17
2022/11/07 09:43:53;;;;;;;4.63;3.50;;;18.00;56.30;;;;;;5073877;28;20365;-16
2022/11/07 09:46:32;;;;;;;5.75;3.67;;;18.30;57.50;;;;;;5072617;28;20082;-15
2022/11/07 09:49:02;;;;;;;6.43;3.60;;;18.50;57.20;;;;;;5073327;28;20032;-15
2022/11/07 09:51:41;;;;;;;4.70;3.55;;;18.80;56.70;;;;;;5073389;28;20384;-16
2022/11/07 09:54:17;;;;;;;5.00;3.97;;;19.10;55.30;;;;;;5072295;28;20028;-14
2022/11/07 09:56:44;;;;;;;4.45;3.30;;;19.20;54.00;;;;;;5073411;28;20039;-17
2022/11/07 09:59:56;;;;;;;5.50;3.75;;;19.10;54.00;;;;;;5073123;28;20083;-15
2022/11/07 10:02:29;;;;;;;8.07;4.35;;;19.30;54.30;;;;;;5071476;28;20033;-16
2022/11/07 10:04:58;;;;;;;5.30;3.60;;;19.60;50.70;;;;;;5073006;28;20033;-15
2022/11/07 10:07:33;;;;;;;6.55;3.55;;;19.90;52.20;;;;;;5073234;28;20032;-15
2022/11/07 10:10:45;;;;;;;5.80;3.95;;;20.00;49.80;;;;;;5073253;28;20388;-15
2022/11/07 10:13:27;;;;;;;5.68;3.42;;;20.30;48.90;;;;;;5051009;28;20051;-14
2022/11/07 10:16:19;;;;;;;6.53;3.90;;;20.50;48.90;;;;;;5051719;28;20071;-15
2022/11/07 10:18:54;;;;;;;5.65;3.90;;;20.70;48.20;;;;;;5051212;28;20040;-14
2022/11/07 10:21:48;;;;;;;4.57;3.38;;;20.90;46.50;;;;;;5051449;28;20505;-15
2022/11/07 10:24:24;;;;;;;6.28;3.45;;;21.10;48.50;;;;;;5050832;28;20036;-16
2022/11/07 10:26:51;;;;;;;3.72;3.10;;;21.40;44.30;;;;;;5034036;28;20493;-15
2022/11/07 10:29:20;;;;;;;5.88;3.33;;;21.60;47.50;;;;;;5050881;28;20132;-15
2022/11/07 10:32:18;;;;;;;5.32;3.40;;;21.90;46.10;;;;;;5051693;28;20033;-15
2022/11/07 10:34:56;;;;;;;5.03;3.45;;;22.20;45.50;;;;;;5050510;28;20053;-15
2022/11/07 10:37:23;;;;;;;5.40;3.28;;;22.50;46.20;;;;;;5050944;28;20045;-13
2022/11/07 10:39:49;;;;;;;4.13;3.20;;;22.80;45.80;;;;;;5051320;28;20025;-15
2022/11/07 10:42:19;;;;;;;6.70;3.90;;;23.00;44.90;;;;;;5051067;28;20036;-16
2022/11/07 10:44:46;;;;;;;5.95;3.45;;;23.20;41.00;;;;;;5069505;28;20044;-14
2022/11/07 10:47:17;;;;;;;4.85;3.25;;;23.30;42.30;;;;;;5073106;28;20374;-15
2022/11/07 10:49:55;;;;;;;4.13;3.22;;;23.40;42.30;;;;;;5073022;28;20021;-15
2022/11/07 10:52:23;;;;;;;4.22;3.55;;;23.50;42.00;;;;;;5075983;28;20077;-16
2022/11/07 10:54:49;;;;;;;6.03;3.45;;;23.70;42.20;;;;;;5076564;28;20024;-15
2022/11/07 10:57:19;;;;;;;7.05;3.88;;;23.90;41.80;;;;;;5077065;28;20028;-17
2022/11/07 11:00:20;;;;;;;8.43;4.30;;;24.00;41.40;;;;;;5077462;28;20392;-15
2022/11/07 11:02:50;;;;;;;5.72;4.10;;;24.10;37.70;;;;;;5076679;28;20059;-13
2022/11/07 11:05:39;;;;;;;5.18;3.00;;;23.90;41.30;;;;;;5076590;28;20039;-15
2022/11/07 11:08:30;;;;;;;6.78;4.18;;;23.60;41.60;;;;;;5076584;28;20476;-15
2022/11/07 11:10:57;;;;;;;7.95;4.57;;;23.70;40.20;;;;;;5076558;28;20391;-14
2022/11/07 11:13:26;;;;;;;7.05;4.00;;;23.70;41.80;;;;;;5076319;28;20067;-15
2022/11/07 11:15:55;;;;;;;8.63;4.20;;;23.50;41.50;;;;;;5077282;28;20040;-14
2022/11/07 11:18:22;;;;;;;5.47;3.63;;;23.40;41.80;;;;;;5076417;28;20027;-16
2022/11/07 11:21:02;;;;;;;6.05;4.07;;;23.50;42.10;;;;;;5076535;28;20063;-15
2022/11/07 11:23:31;;;;;;;7.28;3.88;;;23.60;41.30;;;;;;5076743;28;20078;-14
2022/11/07 11:26:12;;;;;;;8.07;4.88;;;23.60;41.70;;;;;;5076169;28;20075;-15
2022/11/07 11:29:09;;;;;;;6.68;3.97;;;23.50;39.60;;;;;;5077050;28;20032;-15
2022/11/07 11:31:43;;;;;;;6.40;3.85;;;23.70;41.10;;;;;;5076110;28;20040;-16
2022/11/07 11:34:49;;;;;;;4.85;3.00;;;24.00;40.20;;;;;;5075821;28;20044;-16
2022/11/07 11:37:20;;;;;;;7.90;3.83;;;24.40;39.40;;;;;;5076261;28;20029;-15
2022/11/07 11:39:54;;;;;;;5.90;3.42;;;24.80;39.10;;;;;;5075959;28;20058;-15
2022/11/07 11:42:43;;;;;;;6.75;3.40;;;25.00;39.50;;;;;;5075953;28;20512;-15
2022/11/07 11:45:32;;;;;;;5.55;3.92;;;25.40;38.70;;;;;;5064955;28;20060;-17
2022/11/07 11:48:19;;;;;;;5.30;3.20;;;25.70;38.30;;;;;;5076160;28;20548;-14
2022/11/07 11:51:05;;;;;;;4.28;3.08;;;25.70;38.50;;;;;;5075626;28;20036;-15
2022/11/07 11:53:32;;;;;;;4.72;3.33;;;25.80;38.30;;;;;;5075606;28;20056;-15
2022/11/07 11:56:06;;;;;;;5.55;3.08;;;25.90;38.30;;;;;;5075968;28;20035;-15
2022/11/07 11:58:45;;;;;;;5.07;3.35;;;26.20;38.20;;;;;;5075912;28;20040;-15
2022/11/07 12:01:11;;;;;;;5.60;3.60;;;26.20;37.00;;;;;;5075884;28;20021;-15
2022/11/07 12:03:51;;;;;;;5.15;3.75;;;26.30;37.10;;;;;;5074966;28;20020;-15
2022/11/07 12:06:29;;;;;;;5.70;3.22;;;26.20;36.90;;;;;;5075753;28;20391;-14
2022/11/07 12:09:17;;;;;;;5.63;3.75;;;26.30;36.90;;;;;;5075312;28;20033;-15
2022/11/07 12:11:54;;;;;;;5.65;3.38;;;26.30;35.30;;;;;;5075991;28;20035;-15
2022/11/07 12:14:51;;;;;;;5.28;3.53;;;26.20;36.30;;;;;;5075586;28;20041;-15
2022/11/07 12:17:22;;;;;;;9.13;3.60;;;26.40;35.60;;;;;;5075764;28;20362;-14
2022/11/07 12:20:02;;;;;;;4.47;3.10;;;26.50;35.40;;;;;;5075454;28;20075;-16
2022/11/07 12:23:00;;;;;;;7.47;3.70;;;26.70;35.00;;;;;;5075425;28;20472;-15
2022/11/07 12:25:36;;;;;;;6.15;3.47;;;26.80;34.60;;;;;;5072485;28;20037;-15
2022/11/07 12:28:50;;;;;;;5.53;3.22;;;26.90;34.90;;;;;;5075983;28;20024;-14
2022/11/07 12:31:28;;;;;;;5.30;3.38;;;27.00;34.70;;;;;;5052895;28;20021;-15
2022/11/07 12:34:19;;;;;;;4.65;3.58;;;27.20;33.80;;;;;;5052796;28;20095;-15
2022/11/07 12:36:45;;;;;;;4.40;2.85;;;27.00;34.40;;;;;;5068970;28;20036;-15
2022/11/07 12:39:49;;;;;;;3.58;2.38;;;26.60;35.60;;;;;;5075136;28;20099;-15
2022/11/07 12:42:15;;;;;;;;;;;26.50;35.50;;;;;;5075523;28;20025;-15
2022/11/07 12:44:48;;;;;;;5.88;3.47;;;26.60;34.20;;;;;;5074749;28;20375;-15
2022/11/07 12:47:25;;;;;;;;;;;26.60;35.60;;;;;;5075801;28;20025;-15
2022/11/07 12:50:00;;;;;;;4.68;3.20;;;26.70;33.70;;;;;;5074623;28;19905;-14
2022/11/07 12:52:35;;;;;;;6.78;4.10;;;26.70;35.00;;;;;;5075783;28;20055;-15
2022/11/07 12:55:19;;;;;;;5.47;3.50;;;26.70;33.80;;;;;;5074614;28;20029;-15
2022/11/07 12:57:52;;;;;;;7.15;3.88;;;26.60;34.50;;;;;;5074469;28;20035;-15
2022/11/07 13:00:26;;;;;;;4.78;3.30;;;26.60;35.10;;;;;;5075097;28;20025;-14
2022/11/07 13:03:16;;;;;;;4.80;3.28;;;26.50;34.90;;;;;;5074476;28;20029;-15
2022/11/07 13:06:04;;;;;;;6.47;3.47;;;26.70;32.70;;;;;;5074327;28;20037;-15